Historyczne dane pomiarowe

Dodano dane terminowe – wersja testowa.

Dane z okresu 1951-2019

Wersja bazy: 1.34 [2019-03-16, lista zmian], aktualizacja planowana na 2019-04-15

Dane meteo z obszaru Polski uzyskane na podstawie danych udostępnionych przez Instytut Meteorologii i Gospodarki Wodnej – Państwowy Instytut Badawczy.

 

Wybierz Datę:    

       

TemperaturaWilgotnośćWiatrCiśnienieOpadyŚniegCzas trwania zjawisk
 Stacja t tx tn tng RH VA  wxwx mslp ppp RRR   cm mm wxwxwxwxwxwxwx
1994-10-10 5.7 9.8 2.8 -0.8 83.3- 5.3 1.3---- 0.0------------
1994-10-09 3.0 10.1 -2.2 -5.5 79.8- 4.0 2.3---- 0.0------------
1994-10-08 4.9 8.1 2.6 -1.5 82.8- 5.3 1.0---- 0.1------------
1994-10-07 3.3 9.6 -3.1 -4.7 78.8- 4.0 2.7---- 0.2------------
1994-10-06 3.3 8.6 -1.6 -2.6 88.8- 1.7 1.3---- 0.0------------
1994-10-05 4.6 7.7 1.8 1.6 85.8- 7.7 4.0---- 6.6------------
1994-10-04 5.3 14.5 1.8 1.8 80.8- 4.0 4.0---- 0.0------------
1994-10-03 13.6 17.1 9.8 9.7 92.0- 8.0 3.0---- 8.7------------
1994-10-02 10.1 16.3 4.3 4.0 94.5- 7.0 0.7---- 4.3------------
1994-10-01 11.8 15.6 7.6 6.0 88.3- 4.7 2.7---- 0.3------------
1994-09-30 13.2 17.5 9.8 9.1 85.3- 4.7 1.3---- 0.0------------
1994-09-29 12.3 17.7 7.3 6.2 83.5- 4.3 3.0---- 0.0------------
1994-09-28 12.5 15.7 9.4 7.9 78.0- 4.3 4.0---- 0.0------------
1994-09-27 15.2 19.5 11.7 11.7 85.8- 6.0 1.7---- 0.1------------
1994-09-26 15.0 22.1 7.0 6.9 82.3- 3.7 2.7---- 0.4------------
1994-09-25 15.7 18.3 12.0 7.4 91.5- 7.0 0.7---- 0.0------------
1994-09-24 13.7 24.1 2.9 2.8 83.3- 0.7 0.7---- 0.0------------
1994-09-23 10.3 18.6 3.0 2.4 80.8- 3.0 3.0---- 0.0------------
1994-09-22 12.4 16.5 9.2 8.4 81.5- 4.3 2.0---- 0.0------------
1994-09-21 10.7 12.7 9.0 8.9 96.3- 8.0 3.3---- 0.9------------
1994-09-20 9.3 15.7 1.6 1.5 82.5- 4.7 2.7---- 0.0------------
1994-09-19 10.4 13.8 6.9 6.4 88.0- 6.7 1.7---- 1.1------------
1994-09-18 10.2 12.1 7.2 6.2 75.0- 8.0 4.3---- 1.3------------
1994-09-17 10.8 14.1 6.4 4.3 71.8- 6.0 5.3---- 0.0------------
1994-09-16 13.3 16.6 9.9 9.4 60.3- 6.7 9.3---- 0.0------------
1994-09-15 17.1 21.3 12.5 11.9 66.3- 4.7 8.3---- 0.0------------
1994-09-14 15.9 19.6 12.2 12.1 91.0- 8.0 5.0---- 0.3------------
1994-09-13 16.5 19.8 13.4 10.7 86.8- 8.0 1.7---- 0.1------------
1994-09-12 16.1 22.3 9.0 6.4 87.0- 4.7 4.7---- 0.0------------
1994-09-11 13.2 18.1 10.1 7.9 78.0- 4.3 3.3---- 0.1------------
1994-09-10 13.2 19.1 7.2 5.3 73.8- 6.0 3.7---- 7.3------------
1994-09-09 15.4 19.5 13.3 12.9 67.5- 5.3 5.7---- 0.0------------
1994-09-08 17.2 22.3 12.6 10.9 85.5- 5.7 1.7---- 0.2------------
1994-09-07 14.7 17.6 10.9 9.9 86.5- 7.7 4.3---- 0.0------------
1994-09-06 13.7 17.7 9.9 8.7 75.5- 4.3 4.3---- 0.1------------
1994-09-05 15.7 18.3 12.0 9.9 79.5- 8.0 4.3---- 12.0------------
1994-09-04 15.3 21.1 8.8 7.7 80.0- 1.7 2.7---- 0.0------------
1994-09-03 16.4 19.1 12.2 11.9 74.8- 5.0 3.3---- 0.4------------
1994-09-02 17.7 23.1 12.2 10.7 88.3- 5.7 2.0---- 35.2------------
1994-09-01 17.9 21.7 14.3 14.1 86.8- 6.3 2.3---- 14.6------------
1994-08-31 16.1 22.7 9.0 6.5 72.3- 3.7 3.7---- 1.6------------
1994-08-30 13.8 19.1 9.0 7.2 77.0- 6.0 1.0---- 0.0------------
1994-08-29 14.7 20.1 8.9 6.5 72.8- 3.7 4.3---- 0.0------------
1994-08-28 18.4 23.6 13.2 11.9 77.0- 6.3 4.0---- 6.0------------
1994-08-27 16.7 23.1 10.1 9.3 80.5- 6.7 2.7---- 0.0------------
1994-08-26 14.7 18.9 9.9 8.9 95.5- 6.0 2.7---- 2.0------------
1994-08-25 17.3 22.1 13.4 11.9 85.5- 8.0 1.3---- 31.6------------
1994-08-24 15.9 21.1 10.9 9.5 92.8- 7.0 0.7---- 1.2------------
1994-08-23 17.0 24.1 8.8 7.3 76.0- 5.0 1.3---- 0.0------------
1994-08-22 16.9 24.1 8.6 6.9 73.3- 2.7 0.0---- 0.0------------
1994-08-21 17.0 22.6 10.0 7.6 76.5- 2.7 1.7---- 0.0------------
1994-08-20 17.0 20.6 14.3 13.4 71.3- 4.0 4.7---- 0.0------------
1994-08-19 13.7 17.6 10.7 10.1 89.3- 7.3 6.0---- 3.6------------
1994-08-18 13.6 21.1 12.0 9.4 88.0- 7.0 5.7---- 9.6------------
1994-08-17 16.7 25.1 6.4 4.2 70.8- 5.0 2.3---- 5.4------------
1994-08-16 15.5 20.1 11.4 9.4 67.5- 3.3 2.7---- 0.0------------
1994-08-15 13.9 17.1 10.1 8.9 70.3- 7.3 5.7---- 0.0------------
1994-08-14 14.0 17.6 9.1 8.3 66.3- 6.3 6.0---- 0.0------------
1994-08-13 15.7 18.7 13.9 12.9 82.5- 6.3 5.0---- 1.1------------
1994-08-12 16.8 20.7 13.2 11.9 92.8- 7.0 3.3---- 2.7------------
367.8 ms

 

Źródłem pochodzenia danych jest Instytut Meteorologii i Gospodarki Wodnej – Państwowy Instytut Badawczy. Dane Instytutu Meteorologii i Gospodarki Wodnej – Państwowego Instytutu Badawczego zostały przetworzone.

Dane źródłowe można odnaleźć na stronie https://dane.imgw.pl